createdAt,value
2018-05-24T00:00:08.967Z,3.87
2018-05-24T00:02:37.357Z,3.90
2018-05-24T00:05:05.643Z,3.90
2018-05-24T00:07:33.908Z,4.00
2018-05-24T00:10:02.305Z,3.60
2018-05-24T00:12:30.657Z,3.70
2018-05-24T00:14:59.673Z,3.60
2018-05-24T00:17:28.726Z,3.87
2018-05-24T00:19:56.994Z,3.87
2018-05-24T00:22:25.259Z,3.80
2018-05-24T00:24:54.377Z,3.50
2018-05-24T00:27:23.416Z,3.37
2018-05-24T00:29:51.693Z,3.67
2018-05-24T00:32:20.078Z,3.50
2018-05-24T00:34:48.329Z,3.77
2018-05-24T00:37:16.659Z,3.67
2018-05-24T00:39:45.762Z,3.70
2018-05-24T00:42:14.029Z,3.83
2018-05-24T00:44:42.304Z,3.57
2018-05-24T00:47:10.581Z,3.53
2018-05-24T00:49:38.948Z,3.53
2018-05-24T00:52:07.371Z,3.53
2018-05-24T00:54:35.777Z,3.10
2018-05-24T00:57:03.946Z,3.23
2018-05-24T00:59:32.226Z,3.30
2018-05-24T01:02:00.587Z,3.23
2018-05-24T01:04:28.846Z,2.87
2018-05-24T01:06:57.127Z,3.23
2018-05-24T01:09:25.412Z,2.97
2018-05-24T01:11:53.767Z,2.80
2018-05-24T01:14:22.034Z,3.17
2018-05-24T01:16:51.076Z,2.87
2018-05-24T01:19:19.419Z,2.73
2018-05-24T01:21:48.543Z,3.20
2018-05-24T01:24:16.851Z,2.97
2018-05-24T01:26:45.144Z,3.30
2018-05-24T01:29:13.405Z,2.90
2018-05-24T01:31:42.454Z,3.60
2018-05-24T01:34:10.720Z,3.30
2018-05-24T01:36:56.711Z,3.37
2018-05-24T01:39:25.820Z,3.50
2018-05-24T01:41:54.827Z,3.30
2018-05-24T01:44:23.882Z,3.40
2018-05-24T01:46:52.139Z,3.50
2018-05-24T01:49:20.460Z,3.03
2018-05-24T01:51:48.822Z,3.30
2018-05-24T01:54:17.950Z,3.17
2018-05-24T01:56:46.227Z,3.50
2018-05-24T01:59:14.614Z,3.30
2018-05-24T02:01:42.889Z,3.53
2018-05-24T02:04:11.937Z,3.17
2018-05-24T02:06:40.318Z,3.20
2018-05-24T02:09:08.599Z,3.17
2018-05-24T02:11:36.986Z,3.40
2018-05-24T02:14:05.327Z,2.83
2018-05-24T02:16:33.773Z,3.07
2018-05-24T02:19:02.039Z,2.60
2018-05-24T02:21:31.160Z,3.23
2018-05-24T02:24:00.903Z,3.00
2018-05-24T02:26:29.172Z,3.20
2018-05-24T02:28:58.203Z,2.40
2018-05-24T02:31:26.448Z,3.00
2018-05-24T02:33:54.727Z,3.00
2018-05-24T02:36:23.010Z,2.47
2018-05-24T02:38:51.271Z,2.90
2018-05-24T02:41:19.518Z,2.80
2018-05-24T02:43:48.563Z,2.70
2018-05-24T02:46:16.830Z,2.70
2018-05-24T02:48:45.863Z,2.80
2018-05-24T02:51:14.128Z,2.80
2018-05-24T02:53:43.173Z,2.73
2018-05-24T02:56:11.446Z,2.60
2018-05-24T02:58:39.749Z,2.60
2018-05-24T03:01:08.012Z,3.00
2018-05-24T03:03:36.302Z,2.60
2018-05-24T03:06:04.599Z,2.80
2018-05-24T03:08:32.870Z,2.40
2018-05-24T03:11:01.890Z,2.90
2018-05-24T03:13:30.188Z,2.40
2018-05-24T03:15:58.556Z,2.60
2018-05-24T03:18:27.610Z,3.20
2018-05-24T03:20:55.868Z,3.60
2018-05-24T03:23:24.133Z,2.83
2018-05-24T03:25:53.273Z,3.50
2018-05-24T03:28:21.561Z,2.60
2018-05-24T03:30:49.807Z,2.70
2018-05-24T03:33:18.071Z,3.00
2018-05-24T03:35:46.419Z,3.00
2018-05-24T03:38:15.538Z,3.03
2018-05-24T03:40:43.829Z,3.20
2018-05-24T03:43:12.887Z,3.30
2018-05-24T03:45:41.931Z,3.00
2018-05-24T03:48:10.970Z,3.50
2018-05-24T03:50:39.273Z,3.50
2018-05-24T03:53:07.552Z,3.50
2018-05-24T03:55:35.820Z,3.20
2018-05-24T03:58:04.103Z,3.60
2018-05-24T04:00:50.148Z,3.30
2018-05-24T04:03:36.395Z,3.70
2018-05-24T04:06:04.716Z,3.87
2018-05-24T04:08:33.937Z,3.47
2018-05-24T04:11:03.092Z,3.47
2018-05-24T04:13:31.351Z,3.60
2018-05-24T04:15:59.626Z,3.40
2018-05-24T04:18:27.915Z,3.43
2018-05-24T04:20:56.936Z,4.13
2018-05-24T04:23:25.222Z,4.90
2018-05-24T04:25:54.274Z,4.80
2018-05-24T04:28:22.539Z,4.77
2018-05-24T04:30:50.792Z,4.40
2018-05-24T04:33:19.914Z,3.47
2018-05-24T04:35:48.168Z,3.93
2018-05-24T04:38:16.482Z,4.77
2018-05-24T04:40:45.558Z,4.30
2018-05-24T04:43:13.917Z,5.30
2018-05-24T04:45:42.271Z,5.97
2018-05-24T04:48:11.404Z,5.80
2018-05-24T04:50:39.664Z,6.17
2018-05-24T04:53:07.948Z,5.53
2018-05-24T04:55:36.281Z,5.90
2018-05-24T04:58:04.531Z,6.40
2018-05-24T05:00:32.781Z,6.17
2018-05-24T05:03:02.882Z,6.30
2018-05-24T05:05:31.132Z,6.83
2018-05-24T05:07:59.420Z,7.50
2018-05-24T05:10:29.066Z,7.27
2018-05-24T05:12:57.594Z,8.07
2018-05-24T05:15:26.524Z,7.33
2018-05-24T05:17:56.213Z,6.67
2018-05-24T05:20:26.828Z,7.33
2018-05-24T05:22:55.171Z,6.20
2018-05-24T05:25:28.618Z,5.70
2018-05-24T05:27:56.956Z,5.47
2018-05-24T05:30:26.709Z,6.87
2018-05-24T05:32:56.202Z,6.27
2018-05-24T05:35:25.724Z,7.43
2018-05-24T05:37:54.137Z,6.10
2018-05-24T05:40:22.840Z,7.20
2018-05-24T05:42:51.402Z,7.40
2018-05-24T05:45:19.931Z,7.33
2018-05-24T05:47:48.219Z,8.15
2018-05-24T05:50:16.476Z,7.90
2018-05-24T05:52:44.759Z,9.27
2018-05-24T05:55:13.053Z,9.03
2018-05-24T05:57:42.083Z,10.27
2018-05-24T06:00:12.257Z,9.90
2018-05-24T06:02:41.672Z,10.63
2018-05-24T06:05:10.067Z,11.27
2018-05-24T06:07:38.503Z,10.97
2018-05-24T06:10:07.058Z,10.93
2018-05-24T06:12:35.316Z,11.00
2018-05-24T06:15:03.590Z,10.07
2018-05-24T06:17:31.893Z,10.03
2018-05-24T06:20:00.178Z,10.87
2018-05-24T06:22:28.457Z,11.23
2018-05-24T06:24:56.741Z,10.02
2018-05-24T06:27:25.021Z,9.63
2018-05-24T06:29:54.259Z,10.33
2018-05-24T06:32:22.522Z,9.83
2018-05-24T06:34:50.815Z,10.53
2018-05-24T06:37:19.169Z,9.10
2018-05-24T06:39:48.259Z,8.93
2018-05-24T06:42:16.505Z,9.70
2018-05-24T06:44:44.784Z,10.13
2018-05-24T06:47:13.074Z,9.57
2018-05-24T06:49:41.323Z,9.70
2018-05-24T06:52:09.606Z,11.00
2018-05-24T06:54:37.888Z,9.37
2018-05-24T06:57:06.265Z,9.90
2018-05-24T06:59:34.522Z,10.83
2018-05-24T07:02:03.573Z,8.50
2018-05-24T07:04:31.853Z,9.33
2018-05-24T07:07:00.232Z,7.90
2018-05-24T07:09:28.500Z,9.17
2018-05-24T07:11:57.548Z,6.97
2018-05-24T07:14:25.813Z,8.27
2018-05-24T07:16:54.113Z,6.97
2018-05-24T07:19:22.405Z,7.05
2018-05-24T07:21:50.698Z,6.47
2018-05-24T07:24:19.087Z,7.17
2018-05-24T07:26:47.355Z,6.90
2018-05-24T07:29:16.483Z,7.10
2018-05-24T07:31:45.950Z,7.77
2018-05-24T07:34:14.231Z,7.03
2018-05-24T07:36:42.515Z,6.70
2018-05-24T07:39:10.835Z,5.97
2018-05-24T07:41:39.149Z,5.93
2018-05-24T07:44:07.562Z,7.47
2018-05-24T07:46:35.880Z,7.10
2018-05-24T07:49:04.136Z,6.87
2018-05-24T07:51:32.421Z,7.77
2018-05-24T07:54:01.444Z,6.83
2018-05-24T07:56:29.695Z,7.17
2018-05-24T08:01:33.434Z,5.60
2018-05-24T08:04:01.644Z,6.03
2018-05-24T08:06:30.725Z,6.00
2018-05-24T08:08:59.066Z,7.47
2018-05-24T08:11:28.155Z,7.30
2018-05-24T08:13:57.273Z,6.23
2018-05-24T08:16:25.535Z,6.30
2018-05-24T08:18:53.801Z,6.77
2018-05-24T08:21:22.167Z,6.80
2018-05-24T08:23:50.450Z,6.60
2018-05-24T08:26:18.941Z,5.77
2018-05-24T08:28:47.214Z,5.37
2018-05-24T08:31:16.245Z,5.47
2018-05-24T08:33:44.626Z,6.03
2018-05-24T08:36:13.650Z,5.47
2018-05-24T08:38:41.949Z,6.03
2018-05-24T08:41:10.284Z,5.87
2018-05-24T08:43:38.607Z,5.87
2018-05-24T08:46:06.975Z,6.10
2018-05-24T08:48:35.273Z,6.20
2018-05-24T08:51:03.524Z,5.93
2018-05-24T08:53:31.783Z,6.33
2018-05-24T08:56:00.170Z,6.40
2018-05-24T08:58:28.440Z,6.30
2018-05-24T09:00:57.496Z,5.57
2018-05-24T09:03:25.817Z,6.40
2018-05-24T09:05:54.109Z,6.60
2018-05-24T09:08:22.383Z,6.60
2018-05-24T09:10:50.734Z,5.87
2018-05-24T09:13:19.001Z,6.23
2018-05-24T09:15:48.115Z,6.43
2018-05-24T09:18:17.143Z,6.10
2018-05-24T09:20:45.395Z,6.43
2018-05-24T09:23:14.447Z,5.97
2018-05-24T09:25:42.808Z,6.10
2018-05-24T09:28:11.862Z,6.33
2018-05-24T09:30:40.168Z,7.20
2018-05-24T09:33:08.451Z,6.70
2018-05-24T09:35:36.798Z,7.63
2018-05-24T09:38:05.849Z,7.77
2018-05-24T09:40:34.934Z,7.07
2018-05-24T09:43:03.198Z,7.17
2018-05-24T09:45:32.327Z,7.90
2018-05-24T09:48:00.591Z,8.03
2018-05-24T09:50:29.724Z,8.50
2018-05-24T09:52:57.993Z,8.10
2018-05-24T09:55:27.129Z,8.13
2018-05-24T09:57:55.385Z,7.97
2018-05-24T10:00:23.704Z,8.33
2018-05-24T10:02:51.943Z,8.10
2018-05-24T10:05:20.214Z,9.17
2018-05-24T10:07:48.497Z,9.00
2018-05-24T10:10:16.766Z,8.60
2018-05-24T10:12:45.067Z,8.90
2018-05-24T10:15:13.345Z,8.63
2018-05-24T10:17:41.614Z,8.60
2018-05-24T10:20:10.714Z,9.03
2018-05-24T10:22:39.760Z,7.97
2018-05-24T10:25:08.138Z,8.35
2018-05-24T10:27:36.387Z,8.40
2018-05-24T10:30:04.690Z,8.50
2018-05-24T10:32:32.997Z,8.53
2018-05-24T10:35:02.050Z,8.80
2018-05-24T10:37:30.329Z,8.63
2018-05-24T10:39:58.578Z,8.70
2018-05-24T10:42:27.609Z,9.30
2018-05-24T10:44:55.905Z,8.27
2018-05-24T10:47:24.181Z,9.10
2018-05-24T10:49:52.465Z,9.00
2018-05-24T10:52:20.723Z,8.50
2018-05-24T10:54:48.983Z,8.60
2018-05-24T10:57:17.261Z,9.53
2018-05-24T10:59:45.560Z,9.50
2018-05-24T11:02:13.812Z,9.80
2018-05-24T11:04:42.895Z,8.73
2018-05-24T11:07:11.309Z,9.17
2018-05-24T11:09:40.346Z,9.13
2018-05-24T11:12:08.627Z,10.00
2018-05-24T11:14:36.950Z,9.37
2018-05-24T11:17:05.243Z,9.07
2018-05-24T11:19:33.506Z,8.73
2018-05-24T11:22:01.807Z,9.03
2018-05-24T11:24:30.055Z,10.03
2018-05-24T11:26:58.330Z,8.80
2018-05-24T11:29:26.674Z,8.83
2018-05-24T11:31:55.170Z,9.13
2018-05-24T11:34:23.437Z,8.90
2018-05-24T11:36:52.513Z,9.10
2018-05-24T11:39:20.742Z,8.07
2018-05-24T11:41:48.994Z,9.63
2018-05-24T11:44:17.283Z,8.90
2018-05-24T11:46:45.543Z,9.60
2018-05-24T11:49:13.807Z,9.60
2018-05-24T11:51:42.097Z,9.07
2018-05-24T11:54:10.381Z,9.20
2018-05-24T11:56:38.643Z,8.53
2018-05-24T11:59:07.767Z,8.83
2018-05-24T12:01:37.281Z,10.97
2018-05-24T12:04:06.426Z,10.27
2018-05-24T12:06:34.697Z,9.33
2018-05-24T12:09:02.983Z,9.03
2018-05-24T12:11:31.240Z,9.03
2018-05-24T12:13:59.536Z,8.70
2018-05-24T12:16:28.557Z,10.00
2018-05-24T12:18:57.608Z,11.70
2018-05-24T12:21:25.889Z,8.00
2018-05-24T12:23:54.265Z,8.07
2018-05-24T12:26:23.293Z,8.87
2018-05-24T12:28:51.556Z,8.83
2018-05-24T12:31:19.839Z,9.13
2018-05-24T12:33:48.859Z,8.57
2018-05-24T12:36:17.906Z,8.30
2018-05-24T12:38:46.163Z,8.00
2018-05-24T12:41:14.424Z,7.40
2018-05-24T12:43:43.523Z,6.63
2018-05-24T12:46:11.783Z,7.23
2018-05-24T12:48:40.057Z,6.60
2018-05-24T12:51:08.334Z,6.10
2018-05-24T12:53:36.606Z,10.23
2018-05-24T12:56:04.875Z,6.45
2018-05-24T12:58:33.153Z,7.03
2018-05-24T13:01:01.424Z,7.05
2018-05-24T13:03:29.688Z,7.70
2018-05-24T13:05:57.954Z,7.03
2018-05-24T13:08:26.976Z,6.37
2018-05-24T13:10:55.252Z,6.07
2018-05-24T13:13:24.368Z,6.90
2018-05-24T13:15:53.372Z,7.47
2018-05-24T13:18:21.668Z,8.20
2018-05-24T13:20:49.955Z,7.47
2018-05-24T13:23:18.212Z,8.00
2018-05-24T13:25:46.477Z,7.10
2018-05-24T13:28:14.758Z,7.23
2018-05-24T13:30:43.785Z,6.43
2018-05-24T13:33:12.032Z,6.87
2018-05-24T13:35:40.418Z,6.30
2018-05-24T13:38:08.704Z,6.23
2018-05-24T13:40:37.090Z,6.10
2018-05-24T13:43:05.396Z,5.80
2018-05-24T13:45:33.667Z,6.67
2018-05-24T13:48:02.793Z,6.63
2018-05-24T13:50:31.065Z,6.53
2018-05-24T13:53:00.094Z,6.33
2018-05-24T13:55:28.358Z,6.63
2018-05-24T13:57:57.421Z,6.80
2018-05-24T14:00:25.694Z,6.40
2018-05-24T14:02:53.974Z,6.63
2018-05-24T14:05:22.245Z,6.43
2018-05-24T14:07:51.275Z,6.30
2018-05-24T14:10:19.583Z,5.10
2018-05-24T14:12:48.662Z,6.43
2018-05-24T14:15:16.962Z,6.17
2018-05-24T14:17:45.217Z,6.67
2018-05-24T14:20:14.263Z,6.93
2018-05-24T14:22:42.533Z,6.13
2018-05-24T14:25:11.569Z,6.40
2018-05-24T14:27:39.851Z,6.80
2018-05-24T14:30:08.145Z,7.30
2018-05-24T14:32:38.136Z,7.30
2018-05-24T14:35:06.561Z,7.17
2018-05-24T14:37:34.902Z,7.07
2018-05-24T14:40:03.161Z,6.83
2018-05-24T14:42:31.526Z,6.90
2018-05-24T14:45:00.561Z,7.17
2018-05-24T14:47:28.816Z,7.03
2018-05-24T14:49:57.895Z,7.23
2018-05-24T14:52:26.147Z,6.60
2018-05-24T14:54:54.423Z,7.07
2018-05-24T14:57:22.698Z,6.40
2018-05-24T14:59:51.011Z,6.73
2018-05-24T15:02:19.297Z,8.80
2018-05-24T15:04:47.574Z,10.07
2018-05-24T15:07:15.862Z,11.07
2018-05-24T15:09:44.138Z,11.87
2018-05-24T15:12:13.258Z,12.43
2018-05-24T15:14:41.528Z,13.77
2018-05-24T15:17:09.811Z,13.83
2018-05-24T15:19:38.113Z,13.13
2018-05-24T15:22:06.498Z,14.93
2018-05-24T15:24:34.849Z,15.43
2018-05-24T15:27:03.218Z,15.52
2018-05-24T15:29:31.470Z,12.83
2018-05-24T15:31:59.769Z,17.60
2018-05-24T15:34:28.819Z,15.63
2018-05-24T15:36:58.631Z,13.18
2018-05-24T15:39:26.925Z,14.63
2018-05-24T15:41:55.224Z,12.30
2018-05-24T15:44:23.532Z,14.57
2018-05-24T15:46:51.771Z,14.30
2018-05-24T15:49:20.855Z,17.13
2018-05-24T15:51:49.126Z,15.50
2018-05-24T15:54:17.403Z,18.77
2018-05-24T15:56:48.827Z,16.57
2018-05-24T15:59:17.141Z,17.30
2018-05-24T16:01:45.425Z,16.60
2018-05-24T16:04:13.910Z,17.47
2018-05-24T16:06:42.919Z,16.33
2018-05-24T16:09:11.312Z,14.40
2018-05-24T16:11:39.637Z,17.83
2018-05-24T16:14:07.993Z,14.83
2018-05-24T16:16:36.307Z,12.53
2018-05-24T16:19:04.608Z,14.37
2018-05-24T16:21:32.979Z,12.63
2018-05-24T16:24:01.365Z,14.17
2018-05-24T16:26:29.782Z,13.00
2018-05-24T16:28:58.036Z,14.67
2018-05-24T16:31:27.083Z,12.97
2018-05-24T16:33:55.415Z,11.43
2018-05-24T16:36:23.657Z,11.47
2018-05-24T16:38:51.922Z,9.47
2018-05-24T16:41:20.245Z,10.10
2018-05-24T16:43:48.500Z,8.97
2018-05-24T16:46:16.848Z,7.57
2018-05-24T16:48:45.116Z,6.87
2018-05-24T16:51:13.390Z,6.53
2018-05-24T16:53:41.660Z,6.00
2018-05-24T16:56:09.943Z,6.40
2018-05-24T16:58:38.969Z,6.10
2018-05-24T17:01:07.229Z,6.50
2018-05-24T17:03:35.555Z,5.77
2018-05-24T17:06:03.843Z,5.77
2018-05-24T17:08:32.241Z,5.10
2018-05-24T17:11:02.780Z,5.03
2018-05-24T17:13:31.044Z,5.10
2018-05-24T17:15:59.847Z,5.13
2018-05-24T17:18:28.863Z,5.17
2018-05-24T17:20:57.133Z,4.67
2018-05-24T17:23:25.447Z,5.13
2018-05-24T17:25:54.484Z,4.43
2018-05-24T17:28:22.791Z,4.53
2018-05-24T17:30:51.017Z,4.63
2018-05-24T17:33:21.160Z,4.30
2018-05-24T17:35:49.585Z,4.20
2018-05-24T17:38:17.850Z,4.33
2018-05-24T17:40:46.138Z,4.43
2018-05-24T17:43:15.151Z,4.00
2018-05-24T17:45:43.460Z,4.67
2018-05-24T17:48:11.761Z,4.40
2018-05-24T17:50:40.122Z,4.40
2018-05-24T17:53:08.378Z,4.10
2018-05-24T17:55:36.687Z,4.10
2018-05-24T17:58:09.659Z,4.17
2018-05-24T18:00:38.013Z,4.60
2018-05-24T18:03:06.285Z,3.87
2018-05-24T18:05:39.150Z,4.40
2018-05-24T18:08:08.574Z,4.67
2018-05-24T18:10:37.580Z,3.90
2018-05-24T18:13:06.846Z,5.00
2018-05-24T18:15:40.191Z,4.33
2018-05-24T18:18:08.558Z,4.63
2018-05-24T18:20:36.824Z,4.30
2018-05-24T18:23:05.086Z,5.40
2018-05-24T18:25:34.134Z,4.83
2018-05-24T18:28:02.499Z,4.90
2018-05-24T18:30:31.611Z,5.03
2018-05-24T18:33:00.652Z,4.87
2018-05-24T18:35:28.946Z,4.83
2018-05-24T18:37:57.203Z,5.40
2018-05-24T18:40:25.504Z,5.10
2018-05-24T18:42:53.858Z,5.23
2018-05-24T18:45:22.797Z,5.10
2018-05-24T18:47:51.093Z,5.23
2018-05-24T18:50:22.042Z,5.25
2018-05-24T18:52:50.328Z,5.23
2018-05-24T18:55:18.583Z,5.47
2018-05-24T18:57:46.901Z,6.00
2018-05-24T19:00:15.947Z,6.30
2018-05-24T19:02:44.225Z,5.80
2018-05-24T19:05:12.497Z,6.40
2018-05-24T19:07:40.747Z,6.00
2018-05-24T19:10:09.019Z,6.27
2018-05-24T19:12:37.298Z,6.00
2018-05-24T19:15:05.653Z,6.20
2018-05-24T19:17:33.914Z,6.40
2018-05-24T19:20:02.934Z,6.77
2018-05-24T19:22:31.988Z,6.70
2018-05-24T19:25:00.270Z,6.67
2018-05-24T19:27:28.529Z,7.50
2018-05-24T19:29:57.549Z,7.10
2018-05-24T19:32:25.817Z,7.00
2018-05-24T19:34:54.854Z,7.50
2018-05-24T19:37:23.099Z,7.90
2018-05-24T19:39:51.420Z,7.60
2018-05-24T19:42:19.689Z,7.83
2018-05-24T19:44:48.707Z,7.87
2018-05-24T19:47:16.991Z,7.93
2018-05-24T19:49:45.241Z,7.47
2018-05-24T19:52:13.542Z,7.97
2018-05-24T19:54:42.697Z,7.87
2018-05-24T19:57:11.700Z,8.03
2018-05-24T19:59:39.969Z,7.77
2018-05-24T20:02:08.276Z,7.73
2018-05-24T20:04:37.315Z,8.80
2018-05-24T20:07:05.607Z,8.40
2018-05-24T20:09:33.879Z,8.27
2018-05-24T20:12:02.149Z,8.30
2018-05-24T20:14:31.189Z,8.33
2018-05-24T20:16:59.476Z,8.50
2018-05-24T20:19:27.754Z,9.20
2018-05-24T20:21:56.009Z,9.10
2018-05-24T20:24:24.297Z,9.23
2018-05-24T20:26:52.556Z,9.60
2018-05-24T20:29:20.824Z,8.77
2018-05-24T20:31:49.086Z,8.73
2018-05-24T20:34:18.108Z,9.03
2018-05-24T20:36:46.502Z,9.73
2018-05-24T20:39:14.802Z,9.50
2018-05-24T20:41:43.143Z,9.23
2018-05-24T20:44:11.356Z,9.47
2018-05-24T20:46:39.895Z,9.40
2018-05-24T20:49:08.155Z,9.90
2018-05-24T20:51:36.427Z,9.67
2018-05-24T20:54:05.476Z,10.17
2018-05-24T20:56:33.762Z,9.87
2018-05-24T20:59:02.043Z,11.17
2018-05-24T21:01:30.450Z,10.00
2018-05-24T21:03:58.704Z,10.37
2018-05-24T21:06:27.733Z,10.07
2018-05-24T21:08:56.020Z,9.83
2018-05-24T21:11:24.613Z,10.80
2018-05-24T21:13:53.826Z,10.57
2018-05-24T21:16:23.335Z,10.20
2018-05-24T21:18:52.330Z,10.60
2018-05-24T21:21:20.739Z,10.67
2018-05-24T21:23:50.848Z,11.20
2018-05-24T21:26:20.143Z,10.20
2018-05-24T21:28:50.749Z,11.30
2018-05-24T21:31:21.369Z,10.60
2018-05-24T21:33:49.771Z,11.00
2018-05-24T21:36:18.073Z,12.10
2018-05-24T21:38:46.471Z,10.83
2018-05-24T21:41:16.154Z,11.80
2018-05-24T21:43:44.652Z,11.70
2018-05-24T21:46:16.240Z,10.80
2018-05-24T21:48:48.157Z,11.17
2018-05-24T21:51:16.780Z,11.73
2018-05-24T21:53:45.468Z,12.30
2018-05-24T21:56:16.775Z,11.60
2018-05-24T21:58:45.697Z,12.23
2018-05-24T22:01:14.746Z,11.73
2018-05-24T22:03:45.948Z,11.97
2018-05-24T22:06:16.641Z,12.67
2018-05-24T22:08:44.909Z,12.03
2018-05-24T22:11:13.288Z,12.33
2018-05-24T22:13:41.574Z,12.07
2018-05-24T22:16:09.860Z,12.17
2018-05-24T22:18:38.175Z,13.23
2018-05-24T22:21:06.461Z,12.43
2018-05-24T22:23:34.723Z,12.83
2018-05-24T22:26:03.762Z,12.63
2018-05-24T22:28:32.025Z,12.20
2018-05-24T22:31:00.309Z,12.53
2018-05-24T22:33:29.403Z,12.50
2018-05-24T22:35:58.428Z,12.37
2018-05-24T22:38:26.702Z,13.37
2018-05-24T22:40:55.731Z,12.43
2018-05-24T22:43:24.020Z,12.87
2018-05-24T22:45:53.053Z,13.30
2018-05-24T22:48:21.529Z,13.47
2018-05-24T22:50:49.805Z,13.53
2018-05-24T22:53:18.842Z,12.70
2018-05-24T22:55:47.399Z,13.57
2018-05-24T22:58:16.515Z,13.43
2018-05-24T23:00:45.628Z,13.53
2018-05-24T23:03:14.771Z,13.77
2018-05-24T23:05:43.026Z,13.97
2018-05-24T23:08:12.091Z,12.93
2018-05-24T23:10:40.383Z,13.33
2018-05-24T23:13:08.670Z,14.70
2018-05-24T23:15:36.962Z,13.50
2018-05-24T23:18:05.254Z,13.77
2018-05-24T23:20:33.534Z,13.77
2018-05-24T23:23:01.876Z,13.70
2018-05-24T23:25:30.930Z,14.57
2018-05-24T23:27:59.195Z,14.17
2018-05-24T23:30:27.469Z,14.23
2018-05-24T23:32:56.538Z,14.57
2018-05-24T23:35:24.795Z,13.77
2018-05-24T23:37:53.283Z,14.03
2018-05-24T23:40:21.551Z,13.40
2018-05-24T23:42:49.866Z,14.43
2018-05-24T23:45:18.135Z,14.80
2018-05-24T23:47:47.254Z,14.70
2018-05-24T23:50:16.277Z,15.23
2018-05-24T23:52:44.543Z,14.47
2018-05-24T23:55:13.593Z,15.03
2018-05-24T23:57:41.863Z,15.30
